Terminal Aerodrome Forecast
Issued by NWS Twin Cities, MN

Home | Current Version | Previous Version | Graphics & Text | Print | Product List | Glossary On
Versions: 1 2 3 4 5 6 7 8 9 10 11 12 13 14 15 16 17 18 19 20 21
000
FTUS43 KMPX 241700
TAFSTC
TAF
KSTC 241720Z 2418/2518 17010G18KT P6SM SCT100 BKN200
     FM242300 15008KT P6SM SCT050 BKN100
     FM250600 14008KT P6SM BKN070
     FM251400 15007KT P6SM SCT020 BKN040=

USA.gov is the U.S. government's official web portal to all federal, state and local government web resources and services.